sensor_id;sensor_type;location;lat;lon;timestamp;P1;durP1;ratioP1;P2;durP2;ratioP2
66587;SDS011;53446;50.076;8.198;2022-12-16T00:01:21;14.25;;;5.18;;
66587;SDS011;53446;50.076;8.198;2022-12-16T00:03:24;16.20;;;5.87;;
66587;SDS011;53446;50.076;8.198;2022-12-16T00:05:24;16.75;;;6.28;;
66587;SDS011;53446;50.076;8.198;2022-12-16T00:07:25;14.03;;;5.17;;
66587;SDS011;53446;50.076;8.198;2022-12-16T00:09:25;20.80;;;7.30;;
66587;SDS011;53446;50.076;8.198;2022-12-16T00:11:25;18.03;;;6.37;;
66587;SDS011;53446;50.076;8.198;2022-12-16T00:13:27;16.92;;;7.15;;
66587;SDS011;53446;50.076;8.198;2022-12-16T00:15:28;19.95;;;7.53;;
66587;SDS011;53446;50.076;8.198;2022-12-16T00:17:28;19.48;;;6.97;;
66587;SDS011;53446;50.076;8.198;2022-12-16T00:19:29;19.43;;;6.97;;
66587;SDS011;53446;50.076;8.198;2022-12-16T00:21:30;18.20;;;7.18;;
66587;SDS011;53446;50.076;8.198;2022-12-16T00:23:30;17.25;;;6.80;;
66587;SDS011;53446;50.076;8.198;2022-12-16T00:25:31;18.37;;;5.63;;
66587;SDS011;53446;50.076;8.198;2022-12-16T00:27:32;17.92;;;6.53;;
66587;SDS011;53446;50.076;8.198;2022-12-16T00:29:33;19.67;;;6.83;;
66587;SDS011;53446;50.076;8.198;2022-12-16T00:31:33;19.13;;;7.00;;
66587;SDS011;53446;50.076;8.198;2022-12-16T00:33:34;20.45;;;7.50;;
66587;SDS011;53446;50.076;8.198;2022-12-16T00:35:34;16.43;;;6.53;;
66587;SDS011;53446;50.076;8.198;2022-12-16T00:37:34;21.53;;;8.07;;
66587;SDS011;53446;50.076;8.198;2022-12-16T00:39:35;17.90;;;6.10;;
66587;SDS011;53446;50.076;8.198;2022-12-16T00:41:35;18.07;;;6.23;;
66587;SDS011;53446;50.076;8.198;2022-12-16T00:43:36;16.23;;;5.53;;
66587;SDS011;53446;50.076;8.198;2022-12-16T00:45:36;20.00;;;7.20;;
66587;SDS011;53446;50.076;8.198;2022-12-16T00:47:37;15.90;;;6.30;;
66587;SDS011;53446;50.076;8.198;2022-12-16T00:49:38;19.33;;;6.35;;
66587;SDS011;53446;50.076;8.198;2022-12-16T00:51:38;16.13;;;5.63;;
66587;SDS011;53446;50.076;8.198;2022-12-16T00:53:40;17.92;;;6.55;;
66587;SDS011;53446;50.076;8.198;2022-12-16T00:55:40;14.90;;;5.43;;
66587;SDS011;53446;50.076;8.198;2022-12-16T00:57:40;19.43;;;6.40;;
66587;SDS011;53446;50.076;8.198;2022-12-16T00:59:40;18.20;;;6.20;;
66587;SDS011;53446;50.076;8.198;2022-12-16T01:01:41;15.70;;;5.20;;
66587;SDS011;53446;50.076;8.198;2022-12-16T01:03:41;16.00;;;5.63;;
66587;SDS011;53446;50.076;8.198;2022-12-16T01:05:41;15.37;;;5.67;;
66587;SDS011;53446;50.076;8.198;2022-12-16T01:07:42;14.60;;;5.30;;
66587;SDS011;53446;50.076;8.198;2022-12-16T01:09:42;15.87;;;5.23;;
66587;SDS011;53446;50.076;8.198;2022-12-16T01:11:43;13.88;;;5.25;;
66587;SDS011;53446;50.076;8.198;2022-12-16T01:13:43;13.30;;;5.13;;
66587;SDS011;53446;50.076;8.198;2022-12-16T01:15:44;16.73;;;5.80;;
66587;SDS011;53446;50.076;8.198;2022-12-16T01:17:44;14.20;;;4.95;;
66587;SDS011;53446;50.076;8.198;2022-12-16T01:19:44;18.80;;;5.63;;
66587;SDS011;53446;50.076;8.198;2022-12-16T01:21:45;17.53;;;5.63;;
66587;SDS011;53446;50.076;8.198;2022-12-16T01:23:46;15.97;;;6.30;;
66587;SDS011;53446;50.076;8.198;2022-12-16T01:25:47;15.02;;;5.18;;
66587;SDS011;53446;50.076;8.198;2022-12-16T01:27:50;14.23;;;5.25;;
66587;SDS011;53446;50.076;8.198;2022-12-16T01:29:51;12.50;;;4.43;;
66587;SDS011;53446;50.076;8.198;2022-12-16T01:31:51;13.57;;;5.00;;
66587;SDS011;53446;50.076;8.198;2022-12-16T01:33:51;12.33;;;5.00;;
66587;SDS011;53446;50.076;8.198;2022-12-16T01:35:57;12.27;;;4.87;;
66587;SDS011;53446;50.076;8.198;2022-12-16T01:38:06;16.52;;;5.40;;
66587;SDS011;53446;50.076;8.198;2022-12-16T01:40:07;13.00;;;4.90;;
66587;SDS011;53446;50.076;8.198;2022-12-16T01:42:16;14.85;;;5.07;;
66587;SDS011;53446;50.076;8.198;2022-12-16T01:44:24;10.77;;;4.40;;
66587;SDS011;53446;50.076;8.198;2022-12-16T01:46:25;12.93;;;4.87;;
66587;SDS011;53446;50.076;8.198;2022-12-16T01:48:34;13.48;;;4.78;;
66587;SDS011;53446;50.076;8.198;2022-12-16T01:50:38;12.00;;;4.53;;
66587;SDS011;53446;50.076;8.198;2022-12-16T01:52:40;15.23;;;4.80;;
66587;SDS011;53446;50.076;8.198;2022-12-16T01:54:44;13.32;;;4.63;;
66587;SDS011;53446;50.076;8.198;2022-12-16T01:56:54;14.10;;;4.82;;
66587;SDS011;53446;50.076;8.198;2022-12-16T01:58:57;12.40;;;4.95;;
66587;SDS011;53446;50.076;8.198;2022-12-16T02:00:58;13.13;;;4.40;;
66587;SDS011;53446;50.076;8.198;2022-12-16T02:02:59;11.80;;;4.13;;
66587;SDS011;53446;50.076;8.198;2022-12-16T02:05:00;13.65;;;5.07;;
66587;SDS011;53446;50.076;8.198;2022-12-16T02:07:19;15.10;;;5.22;;
66587;SDS011;53446;50.076;8.198;2022-12-16T02:09:19;13.80;;;4.90;;
66587;SDS011;53446;50.076;8.198;2022-12-16T02:13:47;18.60;;;5.10;;
66587;SDS011;53446;50.076;8.198;2022-12-16T02:18:04;10.33;;;3.57;;
66587;SDS011;53446;50.076;8.198;2022-12-16T02:20:41;11.65;;;4.50;;
66587;SDS011;53446;50.076;8.198;2022-12-16T02:23:15;14.27;;;4.38;;
66587;SDS011;53446;50.076;8.198;2022-12-16T02:30:36;12.83;;;4.57;;
66587;SDS011;53446;50.076;8.198;2022-12-16T02:35:06;11.20;;;3.90;;
66587;SDS011;53446;50.076;8.198;2022-12-16T02:43:52;13.82;;;4.68;;
66587;SDS011;53446;50.076;8.198;2022-12-16T02:45:54;14.52;;;4.70;;
66587;SDS011;53446;50.076;8.198;2022-12-16T02:47:55;11.93;;;4.37;;
66587;SDS011;53446;50.076;8.198;2022-12-16T02:49:55;14.95;;;4.80;;
66587;SDS011;53446;50.076;8.198;2022-12-16T02:51:57;11.90;;;4.43;;
66587;SDS011;53446;50.076;8.198;2022-12-16T02:53:58;13.98;;;5.30;;
66587;SDS011;53446;50.076;8.198;2022-12-16T02:58:43;13.68;;;4.95;;
66587;SDS011;53446;50.076;8.198;2022-12-16T03:00:51;16.33;;;4.85;;
66587;SDS011;53446;50.076;8.198;2022-12-16T03:05:02;17.00;;;5.30;;
66587;SDS011;53446;50.076;8.198;2022-12-16T03:07:05;17.02;;;6.05;;
66587;SDS011;53446;50.076;8.198;2022-12-16T03:09:09;13.85;;;4.60;;
66587;SDS011;53446;50.076;8.198;2022-12-16T03:11:10;11.90;;;4.85;;
66587;SDS011;53446;50.076;8.198;2022-12-16T03:13:11;13.35;;;5.22;;
66587;SDS011;53446;50.076;8.198;2022-12-16T03:15:13;13.73;;;4.60;;
66587;SDS011;53446;50.076;8.198;2022-12-16T03:17:15;14.07;;;4.70;;
66587;SDS011;53446;50.076;8.198;2022-12-16T03:19:17;12.55;;;4.22;;
66587;SDS011;53446;50.076;8.198;2022-12-16T03:21:19;13.20;;;4.70;;
66587;SDS011;53446;50.076;8.198;2022-12-16T03:23:22;14.32;;;4.80;;
66587;SDS011;53446;50.076;8.198;2022-12-16T03:25:25;13.10;;;4.37;;
66587;SDS011;53446;50.076;8.198;2022-12-16T03:29:36;11.30;;;4.25;;
66587;SDS011;53446;50.076;8.198;2022-12-16T03:31:48;12.40;;;3.92;;
66587;SDS011;53446;50.076;8.198;2022-12-16T03:33:55;10.45;;;4.10;;
66587;SDS011;53446;50.076;8.198;2022-12-16T03:36:03;10.83;;;3.80;;
66587;SDS011;53446;50.076;8.198;2022-12-16T03:38:08;13.00;;;4.82;;
66587;SDS011;53446;50.076;8.198;2022-12-16T03:40:10;11.43;;;4.13;;
66587;SDS011;53446;50.076;8.198;2022-12-16T03:42:11;13.68;;;4.13;;
66587;SDS011;53446;50.076;8.198;2022-12-16T03:44:13;11.40;;;3.92;;
66587;SDS011;53446;50.076;8.198;2022-12-16T03:46:13;16.63;;;4.83;;
66587;SDS011;53446;50.076;8.198;2022-12-16T03:48:15;12.35;;;4.50;;
66587;SDS011;53446;50.076;8.198;2022-12-16T03:50:20;11.03;;;4.13;;
66587;SDS011;53446;50.076;8.198;2022-12-16T03:52:23;11.82;;;4.07;;
66587;SDS011;53446;50.076;8.198;2022-12-16T03:54:24;9.43;;;3.50;;
66587;SDS011;53446;50.076;8.198;2022-12-16T03:56:24;11.75;;;3.97;;
66587;SDS011;53446;50.076;8.198;2022-12-16T03:58:24;10.10;;;4.00;;
66587;SDS011;53446;50.076;8.198;2022-12-16T04:00:25;11.67;;;4.10;;
66587;SDS011;53446;50.076;8.198;2022-12-16T04:02:25;14.50;;;3.97;;
66587;SDS011;53446;50.076;8.198;2022-12-16T04:04:25;13.77;;;4.30;;
66587;SDS011;53446;50.076;8.198;2022-12-16T04:06:26;12.50;;;4.03;;
66587;SDS011;53446;50.076;8.198;2022-12-16T04:08:26;10.75;;;3.72;;
66587;SDS011;53446;50.076;8.198;2022-12-16T04:10:26;9.60;;;3.90;;
66587;SDS011;53446;50.076;8.198;2022-12-16T04:12:45;7.20;;;2.80;;
66587;SDS011;53446;50.076;8.198;2022-12-16T04:15:04;12.45;;;3.67;;
66587;SDS011;53446;50.076;8.198;2022-12-16T04:17:37;11.18;;;3.90;;
66587;SDS011;53446;50.076;8.198;2022-12-16T04:19:56;13.43;;;4.05;;
66587;SDS011;53446;50.076;8.198;2022-12-16T04:22:22;10.10;;;3.67;;
66587;SDS011;53446;50.076;8.198;2022-12-16T04:24:42;8.97;;;3.10;;
66587;SDS011;53446;50.076;8.198;2022-12-16T04:26:43;10.98;;;3.35;;
66587;SDS011;53446;50.076;8.198;2022-12-16T04:29:02;10.68;;;3.92;;
66587;SDS011;53446;50.076;8.198;2022-12-16T04:31:02;9.60;;;3.53;;
66587;SDS011;53446;50.076;8.198;2022-12-16T04:33:04;10.43;;;3.10;;
66587;SDS011;53446;50.076;8.198;2022-12-16T04:35:25;10.68;;;4.03;;
66587;SDS011;53446;50.076;8.198;2022-12-16T04:37:46;11.85;;;4.13;;
66587;SDS011;53446;50.076;8.198;2022-12-16T04:40:05;12.27;;;4.30;;
66587;SDS011;53446;50.076;8.198;2022-12-16T04:42:25;12.48;;;4.10;;
66587;SDS011;53446;50.076;8.198;2022-12-16T04:44:44;11.18;;;4.18;;
66587;SDS011;53446;50.076;8.198;2022-12-16T04:47:03;8.77;;;3.60;;
66587;SDS011;53446;50.076;8.198;2022-12-16T04:49:22;12.00;;;4.20;;
66587;SDS011;53446;50.076;8.198;2022-12-16T04:51:41;13.07;;;3.88;;
66587;SDS011;53446;50.076;8.198;2022-12-16T04:54:00;12.18;;;3.88;;
66587;SDS011;53446;50.076;8.198;2022-12-16T04:56:19;10.65;;;3.38;;
66587;SDS011;53446;50.076;8.198;2022-12-16T04:58:37;8.23;;;3.00;;
66587;SDS011;53446;50.076;8.198;2022-12-16T05:00:56;10.13;;;4.10;;
66587;SDS011;53446;50.076;8.198;2022-12-16T05:03:16;12.43;;;3.78;;
66587;SDS011;53446;50.076;8.198;2022-12-16T05:05:35;12.55;;;3.72;;
66587;SDS011;53446;50.076;8.198;2022-12-16T05:07:54;8.38;;;3.38;;
66587;SDS011;53446;50.076;8.198;2022-12-16T05:10:13;9.32;;;3.65;;
66587;SDS011;53446;50.076;8.198;2022-12-16T05:12:32;9.90;;;3.08;;
66587;SDS011;53446;50.076;8.198;2022-12-16T05:14:51;10.20;;;3.08;;
66587;SDS011;53446;50.076;8.198;2022-12-16T05:17:20;12.88;;;4.00;;
66587;SDS011;53446;50.076;8.198;2022-12-16T05:19:39;10.57;;;3.50;;
66587;SDS011;53446;50.076;8.198;2022-12-16T05:21:58;9.68;;;3.05;;
66587;SDS011;53446;50.076;8.198;2022-12-16T05:24:21;8.77;;;2.90;;
66587;SDS011;53446;50.076;8.198;2022-12-16T05:26:40;14.43;;;3.65;;
66587;SDS011;53446;50.076;8.198;2022-12-16T05:28:59;10.25;;;3.25;;
66587;SDS011;53446;50.076;8.198;2022-12-16T05:31:18;10.20;;;3.55;;
66587;SDS011;53446;50.076;8.198;2022-12-16T05:33:37;8.68;;;2.83;;
66587;SDS011;53446;50.076;8.198;2022-12-16T05:35:56;8.98;;;2.92;;
66587;SDS011;53446;50.076;8.198;2022-12-16T05:38:14;12.43;;;3.53;;
66587;SDS011;53446;50.076;8.198;2022-12-16T05:40:33;10.35;;;3.60;;
66587;SDS011;53446;50.076;8.198;2022-12-16T05:42:52;8.63;;;3.20;;
66587;SDS011;53446;50.076;8.198;2022-12-16T05:45:11;8.25;;;3.13;;
66587;SDS011;53446;50.076;8.198;2022-12-16T05:47:30;8.38;;;2.90;;
66587;SDS011;53446;50.076;8.198;2022-12-16T05:49:49;6.85;;;2.80;;
66587;SDS011;53446;50.076;8.198;2022-12-16T05:52:08;8.13;;;2.78;;
66587;SDS011;53446;50.076;8.198;2022-12-16T05:54:27;10.07;;;3.17;;
66587;SDS011;53446;50.076;8.198;2022-12-16T05:56:46;8.18;;;2.97;;
66587;SDS011;53446;50.076;8.198;2022-12-16T05:59:05;9.90;;;2.80;;
66587;SDS011;53446;50.076;8.198;2022-12-16T06:01:24;8.90;;;2.75;;
66587;SDS011;53446;50.076;8.198;2022-12-16T06:03:42;9.30;;;3.20;;
66587;SDS011;53446;50.076;8.198;2022-12-16T06:06:01;9.68;;;3.15;;
66587;SDS011;53446;50.076;8.198;2022-12-16T06:08:20;10.48;;;2.92;;
66587;SDS011;53446;50.076;8.198;2022-12-16T06:10:39;9.68;;;3.25;;
66587;SDS011;53446;50.076;8.198;2022-12-16T06:12:58;10.85;;;3.05;;
66587;SDS011;53446;50.076;8.198;2022-12-16T06:15:17;10.70;;;2.95;;
66587;SDS011;53446;50.076;8.198;2022-12-16T06:17:36;8.27;;;2.78;;
66587;SDS011;53446;50.076;8.198;2022-12-16T06:20:08;10.93;;;3.20;;
66587;SDS011;53446;50.076;8.198;2022-12-16T06:22:28;8.65;;;3.17;;
66587;SDS011;53446;50.076;8.198;2022-12-16T06:24:46;8.55;;;3.45;;
66587;SDS011;53446;50.076;8.198;2022-12-16T06:27:05;9.02;;;3.40;;
66587;SDS011;53446;50.076;8.198;2022-12-16T06:29:24;10.73;;;2.80;;
66587;SDS011;53446;50.076;8.198;2022-12-16T06:31:43;9.20;;;2.92;;
66587;SDS011;53446;50.076;8.198;2022-12-16T06:34:02;9.25;;;2.90;;
66587;SDS011;53446;50.076;8.198;2022-12-16T06:36:21;9.68;;;2.85;;
66587;SDS011;53446;50.076;8.198;2022-12-16T06:38:40;10.73;;;3.00;;
66587;SDS011;53446;50.076;8.198;2022-12-16T06:40:59;8.43;;;3.42;;
66587;SDS011;53446;50.076;8.198;2022-12-16T06:43:17;9.43;;;3.22;;
66587;SDS011;53446;50.076;8.198;2022-12-16T06:45:36;9.82;;;2.72;;
66587;SDS011;53446;50.076;8.198;2022-12-16T06:47:55;8.32;;;2.90;;
66587;SDS011;53446;50.076;8.198;2022-12-16T06:50:14;10.20;;;3.00;;
66587;SDS011;53446;50.076;8.198;2022-12-16T06:52:33;8.60;;;3.30;;
66587;SDS011;53446;50.076;8.198;2022-12-16T06:54:53;11.15;;;3.42;;
66587;SDS011;53446;50.076;8.198;2022-12-16T06:57:12;9.52;;;2.80;;
66587;SDS011;53446;50.076;8.198;2022-12-16T06:59:30;9.35;;;3.00;;
66587;SDS011;53446;50.076;8.198;2022-12-16T07:01:49;9.55;;;3.30;;
66587;SDS011;53446;50.076;8.198;2022-12-16T07:04:08;8.90;;;3.30;;
66587;SDS011;53446;50.076;8.198;2022-12-16T07:06:27;10.25;;;2.78;;
66587;SDS011;53446;50.076;8.198;2022-12-16T07:08:46;8.45;;;2.85;;
66587;SDS011;53446;50.076;8.198;2022-12-16T07:11:05;8.73;;;2.60;;
66587;SDS011;53446;50.076;8.198;2022-12-16T07:13:23;9.18;;;3.53;;
66587;SDS011;53446;50.076;8.198;2022-12-16T07:15:42;7.55;;;2.83;;
66587;SDS011;53446;50.076;8.198;2022-12-16T07:18:03;8.60;;;2.60;;
66587;SDS011;53446;50.076;8.198;2022-12-16T07:20:22;7.95;;;2.65;;
66587;SDS011;53446;50.076;8.198;2022-12-16T07:22:44;9.02;;;2.65;;
66587;SDS011;53446;50.076;8.198;2022-12-16T07:25:03;7.93;;;2.70;;
66587;SDS011;53446;50.076;8.198;2022-12-16T07:27:22;8.05;;;2.60;;
66587;SDS011;53446;50.076;8.198;2022-12-16T07:29:41;9.95;;;2.90;;
66587;SDS011;53446;50.076;8.198;2022-12-16T07:32:00;7.90;;;2.97;;
66587;SDS011;53446;50.076;8.198;2022-12-16T07:34:19;9.10;;;2.78;;
66587;SDS011;53446;50.076;8.198;2022-12-16T07:36:38;7.88;;;2.55;;
66587;SDS011;53446;50.076;8.198;2022-12-16T07:38:57;10.05;;;3.42;;
66587;SDS011;53446;50.076;8.198;2022-12-16T07:41:16;9.00;;;3.00;;
66587;SDS011;53446;50.076;8.198;2022-12-16T07:43:35;9.38;;;2.85;;
66587;SDS011;53446;50.076;8.198;2022-12-16T07:45:54;10.57;;;3.60;;
66587;SDS011;53446;50.076;8.198;2022-12-16T07:48:13;8.85;;;2.55;;
66587;SDS011;53446;50.076;8.198;2022-12-16T07:50:32;6.95;;;2.25;;
66587;SDS011;53446;50.076;8.198;2022-12-16T07:52:54;10.02;;;2.95;;
66587;SDS011;53446;50.076;8.198;2022-12-16T07:55:17;8.57;;;3.17;;
66587;SDS011;53446;50.076;8.198;2022-12-16T07:57:35;9.07;;;2.92;;
66587;SDS011;53446;50.076;8.198;2022-12-16T07:59:54;8.20;;;3.03;;
66587;SDS011;53446;50.076;8.198;2022-12-16T08:02:13;9.63;;;3.28;;
66587;SDS011;53446;50.076;8.198;2022-12-16T08:04:32;9.18;;;2.72;;
66587;SDS011;53446;50.076;8.198;2022-12-16T08:06:51;8.55;;;3.08;;
66587;SDS011;53446;50.076;8.198;2022-12-16T08:09:10;10.73;;;3.03;;
66587;SDS011;53446;50.076;8.198;2022-12-16T08:11:29;7.82;;;2.63;;
66587;SDS011;53446;50.076;8.198;2022-12-16T08:13:48;9.00;;;2.40;;
66587;SDS011;53446;50.076;8.198;2022-12-16T08:16:07;8.43;;;2.90;;
66587;SDS011;53446;50.076;8.198;2022-12-16T08:18:25;8.32;;;2.75;;
66587;SDS011;53446;50.076;8.198;2022-12-16T08:20:44;6.82;;;2.72;;
66587;SDS011;53446;50.076;8.198;2022-12-16T08:23:03;8.45;;;2.83;;
66587;SDS011;53446;50.076;8.198;2022-12-16T08:25:22;7.53;;;2.60;;
66587;SDS011;53446;50.076;8.198;2022-12-16T08:27:42;7.47;;;2.63;;
66587;SDS011;53446;50.076;8.198;2022-12-16T08:30:01;8.35;;;3.05;;
66587;SDS011;53446;50.076;8.198;2022-12-16T08:32:20;8.27;;;2.38;;
66587;SDS011;53446;50.076;8.198;2022-12-16T08:34:39;8.52;;;2.50;;
66587;SDS011;53446;50.076;8.198;2022-12-16T08:36:58;7.18;;;2.78;;
66587;SDS011;53446;50.076;8.198;2022-12-16T08:39:16;10.23;;;2.95;;
66587;SDS011;53446;50.076;8.198;2022-12-16T08:41:35;9.30;;;2.92;;
66587;SDS011;53446;50.076;8.198;2022-12-16T08:43:54;8.38;;;2.60;;
66587;SDS011;53446;50.076;8.198;2022-12-16T08:46:13;6.43;;;2.50;;
66587;SDS011;53446;50.076;8.198;2022-12-16T08:48:31;9.32;;;2.78;;
66587;SDS011;53446;50.076;8.198;2022-12-16T08:50:50;10.38;;;2.90;;
66587;SDS011;53446;50.076;8.198;2022-12-16T08:53:09;8.32;;;2.60;;
66587;SDS011;53446;50.076;8.198;2022-12-16T08:55:28;9.57;;;2.95;;
66587;SDS011;53446;50.076;8.198;2022-12-16T08:57:53;9.02;;;2.38;;
66587;SDS011;53446;50.076;8.198;2022-12-16T09:00:13;10.07;;;2.70;;
66587;SDS011;53446;50.076;8.198;2022-12-16T09:02:32;9.02;;;2.70;;
66587;SDS011;53446;50.076;8.198;2022-12-16T09:04:50;7.10;;;2.45;;
66587;SDS011;53446;50.076;8.198;2022-12-16T09:07:09;8.05;;;2.45;;
66587;SDS011;53446;50.076;8.198;2022-12-16T09:09:28;8.90;;;2.65;;
66587;SDS011;53446;50.076;8.198;2022-12-16T09:11:47;8.25;;;2.38;;
66587;SDS011;53446;50.076;8.198;2022-12-16T09:14:05;7.57;;;2.70;;
66587;SDS011;53446;50.076;8.198;2022-12-16T09:16:24;12.32;;;2.70;;
66587;SDS011;53446;50.076;8.198;2022-12-16T09:18:43;9.57;;;2.95;;
66587;SDS011;53446;50.076;8.198;2022-12-16T09:21:02;7.60;;;2.58;;
66587;SDS011;53446;50.076;8.198;2022-12-16T09:23:21;8.35;;;2.58;;
66587;SDS011;53446;50.076;8.198;2022-12-16T09:25:40;7.47;;;2.70;;
66587;SDS011;53446;50.076;8.198;2022-12-16T09:27:59;8.38;;;2.88;;
66587;SDS011;53446;50.076;8.198;2022-12-16T09:30:18;7.57;;;2.72;;
66587;SDS011;53446;50.076;8.198;2022-12-16T09:32:43;8.40;;;2.55;;
66587;SDS011;53446;50.076;8.198;2022-12-16T09:35:02;8.35;;;2.70;;
66587;SDS011;53446;50.076;8.198;2022-12-16T09:37:21;7.88;;;2.63;;
66587;SDS011;53446;50.076;8.198;2022-12-16T09:39:40;7.70;;;2.97;;
66587;SDS011;53446;50.076;8.198;2022-12-16T09:42:08;9.52;;;2.90;;
66587;SDS011;53446;50.076;8.198;2022-12-16T09:44:46;6.22;;;2.50;;
66587;SDS011;53446;50.076;8.198;2022-12-16T09:49:51;8.30;;;3.08;;
66587;SDS011;53446;50.076;8.198;2022-12-16T09:52:11;7.53;;;2.50;;
66587;SDS011;53446;50.076;8.198;2022-12-16T09:54:33;7.82;;;2.90;;
66587;SDS011;53446;50.076;8.198;2022-12-16T09:56:54;7.05;;;2.60;;
66587;SDS011;53446;50.076;8.198;2022-12-16T09:59:14;8.82;;;2.80;;
66587;SDS011;53446;50.076;8.198;2022-12-16T10:01:37;7.78;;;3.00;;
66587;SDS011;53446;50.076;8.198;2022-12-16T10:03:56;9.35;;;2.88;;
66587;SDS011;53446;50.076;8.198;2022-12-16T10:06:33;7.53;;;2.80;;
66587;SDS011;53446;50.076;8.198;2022-12-16T10:08:58;7.57;;;2.55;;
66587;SDS011;53446;50.076;8.198;2022-12-16T10:11:43;9.98;;;2.90;;
66587;SDS011;53446;50.076;8.198;2022-12-16T10:14:13;7.22;;;2.60;;
66587;SDS011;53446;50.076;8.198;2022-12-16T10:19:16;9.95;;;3.05;;
66587;SDS011;53446;50.076;8.198;2022-12-16T10:24:25;7.60;;;2.75;;
66587;SDS011;53446;50.076;8.198;2022-12-16T10:26:52;7.95;;;3.03;;
66587;SDS011;53446;50.076;8.198;2022-12-16T10:29:19;7.22;;;2.70;;
66587;SDS011;53446;50.076;8.198;2022-12-16T10:31:39;11.98;;;2.70;;
66587;SDS011;53446;50.076;8.198;2022-12-16T10:33:58;9.73;;;2.80;;
66587;SDS011;53446;50.076;8.198;2022-12-16T10:36:20;10.85;;;3.03;;
66587;SDS011;53446;50.076;8.198;2022-12-16T10:38:41;8.52;;;3.10;;
66587;SDS011;53446;50.076;8.198;2022-12-16T10:41:02;6.53;;;2.60;;
66587;SDS011;53446;50.076;8.198;2022-12-16T10:43:35;6.82;;;2.95;;
66587;SDS011;53446;50.076;8.198;2022-12-16T10:45:56;7.43;;;2.80;;
66587;SDS011;53446;50.076;8.198;2022-12-16T10:48:20;8.00;;;3.20;;
66587;SDS011;53446;50.076;8.198;2022-12-16T10:50:41;7.82;;;3.30;;
66587;SDS011;53446;50.076;8.198;2022-12-16T10:53:01;8.35;;;3.10;;
66587;SDS011;53446;50.076;8.198;2022-12-16T10:55:33;7.00;;;2.97;;
66587;SDS011;53446;50.076;8.198;2022-12-16T10:58:04;9.48;;;3.65;;
66587;SDS011;53446;50.076;8.198;2022-12-16T11:00:49;7.45;;;3.95;;
66587;SDS011;53446;50.076;8.198;2022-12-16T11:03:16;8.23;;;3.70;;
66587;SDS011;53446;50.076;8.198;2022-12-16T11:05:35;9.77;;;4.13;;
66587;SDS011;53446;50.076;8.198;2022-12-16T11:07:54;9.95;;;4.32;;
66587;SDS011;53446;50.076;8.198;2022-12-16T11:10:23;8.32;;;4.07;;
66587;SDS011;53446;50.076;8.198;2022-12-16T11:12:50;8.90;;;4.07;;
66587;SDS011;53446;50.076;8.198;2022-12-16T11:15:26;9.25;;;4.15;;
66587;SDS011;53446;50.076;8.198;2022-12-16T11:18:11;7.38;;;3.58;;
66587;SDS011;53446;50.076;8.198;2022-12-16T11:20:31;7.78;;;3.85;;
66587;SDS011;53446;50.076;8.198;2022-12-16T11:25:32;9.00;;;4.05;;
66587;SDS011;53446;50.076;8.198;2022-12-16T11:28:00;8.07;;;3.42;;
66587;SDS011;53446;50.076;8.198;2022-12-16T11:30:23;7.95;;;3.60;;
66587;SDS011;53446;50.076;8.198;2022-12-16T11:32:46;8.30;;;4.65;;
66587;SDS011;53446;50.076;8.198;2022-12-16T11:35:17;6.85;;;3.78;;
66587;SDS011;53446;50.076;8.198;2022-12-16T11:37:37;7.28;;;3.90;;
66587;SDS011;53446;50.076;8.198;2022-12-16T11:39:57;9.15;;;4.00;;
66587;SDS011;53446;50.076;8.198;2022-12-16T11:42:27;6.75;;;3.25;;
66587;SDS011;53446;50.076;8.198;2022-12-16T11:44:50;6.88;;;3.58;;
66587;SDS011;53446;50.076;8.198;2022-12-16T11:47:21;7.65;;;4.13;;
66587;SDS011;53446;50.076;8.198;2022-12-16T11:49:49;8.60;;;4.35;;
66587;SDS011;53446;50.076;8.198;2022-12-16T11:52:09;7.07;;;3.63;;
66587;SDS011;53446;50.076;8.198;2022-12-16T11:54:29;6.68;;;3.80;;
66587;SDS011;53446;50.076;8.198;2022-12-16T11:56:51;7.78;;;4.15;;
66587;SDS011;53446;50.076;8.198;2022-12-16T11:59:11;7.78;;;3.97;;
66587;SDS011;53446;50.076;8.198;2022-12-16T12:01:54;7.72;;;4.15;;
66587;SDS011;53446;50.076;8.198;2022-12-16T12:04:16;7.25;;;3.90;;
66587;SDS011;53446;50.076;8.198;2022-12-16T12:06:50;8.73;;;4.75;;
66587;SDS011;53446;50.076;8.198;2022-12-16T12:09:21;7.43;;;4.25;;
66587;SDS011;53446;50.076;8.198;2022-12-16T12:11:43;9.25;;;4.75;;
66587;SDS011;53446;50.076;8.198;2022-12-16T12:16:55;7.85;;;4.72;;
66587;SDS011;53446;50.076;8.198;2022-12-16T12:19:29;8.23;;;4.50;;
66587;SDS011;53446;50.076;8.198;2022-12-16T12:21:58;8.68;;;4.45;;
66587;SDS011;53446;50.076;8.198;2022-12-16T12:24:26;8.57;;;4.95;;
66587;SDS011;53446;50.076;8.198;2022-12-16T12:26:56;8.15;;;4.78;;
66587;SDS011;53446;50.076;8.198;2022-12-16T12:34:16;9.45;;;4.93;;
66587;SDS011;53446;50.076;8.198;2022-12-16T12:39:43;9.43;;;4.82;;
66587;SDS011;53446;50.076;8.198;2022-12-16T12:45:03;9.98;;;5.55;;
66587;SDS011;53446;50.076;8.198;2022-12-16T12:47:34;7.90;;;4.95;;
66587;SDS011;53446;50.076;8.198;2022-12-16T12:57:44;9.13;;;5.32;;
66587;SDS011;53446;50.076;8.198;2022-12-16T13:00:14;9.65;;;4.93;;
66587;SDS011;53446;50.076;8.198;2022-12-16T13:02:41;8.13;;;5.07;;
66587;SDS011;53446;50.076;8.198;2022-12-16T13:05:04;8.77;;;5.32;;
66587;SDS011;53446;50.076;8.198;2022-12-16T13:07:23;9.38;;;5.35;;
66587;SDS011;53446;50.076;8.198;2022-12-16T13:09:42;10.43;;;5.93;;
66587;SDS011;53446;50.076;8.198;2022-12-16T13:16:55;8.95;;;5.40;;
66587;SDS011;53446;50.076;8.198;2022-12-16T13:21:48;9.40;;;5.22;;
66587;SDS011;53446;50.076;8.198;2022-12-16T13:27:00;11.77;;;6.25;;
66587;SDS011;53446;50.076;8.198;2022-12-16T13:29:22;12.18;;;6.22;;
66587;SDS011;53446;50.076;8.198;2022-12-16T13:31:53;10.20;;;5.72;;
66587;SDS011;53446;50.076;8.198;2022-12-16T13:36:37;8.38;;;5.10;;
66587;SDS011;53446;50.076;8.198;2022-12-16T13:38:56;8.50;;;5.20;;
66587;SDS011;53446;50.076;8.198;2022-12-16T13:48:34;10.95;;;5.40;;
66587;SDS011;53446;50.076;8.198;2022-12-16T13:50:55;9.85;;;5.30;;
66587;SDS011;53446;50.076;8.198;2022-12-16T13:53:14;10.27;;;5.15;;
66587;SDS011;53446;50.076;8.198;2022-12-16T13:55:45;8.85;;;5.18;;
66587;SDS011;53446;50.076;8.198;2022-12-16T13:58:16;9.77;;;5.72;;
66587;SDS011;53446;50.076;8.198;2022-12-16T14:00:39;11.90;;;6.93;;
66587;SDS011;53446;50.076;8.198;2022-12-16T14:02:59;10.23;;;6.07;;
66587;SDS011;53446;50.076;8.198;2022-12-16T14:05:24;9.93;;;5.50;;
66587;SDS011;53446;50.076;8.198;2022-12-16T14:07:46;10.95;;;5.95;;
66587;SDS011;53446;50.076;8.198;2022-12-16T14:10:05;9.82;;;5.35;;
66587;SDS011;53446;50.076;8.198;2022-12-16T14:15:05;11.75;;;6.45;;
66587;SDS011;53446;50.076;8.198;2022-12-16T14:17:33;10.40;;;6.10;;
66587;SDS011;53446;50.076;8.198;2022-12-16T14:19:58;10.32;;;5.70;;
66587;SDS011;53446;50.076;8.198;2022-12-16T14:22:27;9.05;;;5.20;;
66587;SDS011;53446;50.076;8.198;2022-12-16T14:24:48;10.82;;;5.60;;
66587;SDS011;53446;50.076;8.198;2022-12-16T14:27:18;12.05;;;5.88;;
66587;SDS011;53446;50.076;8.198;2022-12-16T14:29:45;9.52;;;5.63;;
66587;SDS011;53446;50.076;8.198;2022-12-16T14:32:17;9.35;;;5.38;;
66587;SDS011;53446;50.076;8.198;2022-12-16T14:35:00;8.95;;;4.93;;
66587;SDS011;53446;50.076;8.198;2022-12-16T14:37:33;8.77;;;5.07;;
66587;SDS011;53446;50.076;8.198;2022-12-16T14:39:52;9.18;;;5.32;;
66587;SDS011;53446;50.076;8.198;2022-12-16T14:42:17;8.98;;;4.88;;
66587;SDS011;53446;50.076;8.198;2022-12-16T14:44:37;9.30;;;5.13;;
66587;SDS011;53446;50.076;8.198;2022-12-16T14:46:56;12.52;;;5.10;;
66587;SDS011;53446;50.076;8.198;2022-12-16T14:49:21;8.65;;;4.90;;
66587;SDS011;53446;50.076;8.198;2022-12-16T14:51:45;8.60;;;4.68;;
66587;SDS011;53446;50.076;8.198;2022-12-16T14:54:14;9.32;;;5.18;;